createdAt,value
2022-12-23T00:06:12.020Z,100
2022-12-23T00:12:00.152Z,100
2022-12-23T00:17:50.543Z,100
2022-12-23T00:23:43.694Z,100
2022-12-23T00:29:33.306Z,100
2022-12-23T00:35:24.259Z,100
2022-12-23T00:41:16.665Z,100
2022-12-23T00:47:07.851Z,100
2022-12-23T00:52:57.312Z,100
2022-12-23T00:58:48.294Z,100
2022-12-23T01:04:40.556Z,100
2022-12-23T01:10:32.695Z,100
2022-12-23T01:16:23.676Z,100
2022-12-23T01:22:14.927Z,100
2022-12-23T01:28:06.991Z,100
2022-12-23T01:33:59.088Z,100
2022-12-23T01:39:50.266Z,100
2022-12-23T01:45:41.850Z,100
2022-12-23T01:51:34.281Z,100
2022-12-23T01:57:24.582Z,100
2022-12-23T02:03:16.589Z,100
2022-12-23T02:09:07.613Z,100
2022-12-23T02:14:59.103Z,100
2022-12-23T02:20:48.489Z,100
2022-12-23T02:26:37.811Z,100
2022-12-23T02:32:30.031Z,100
2022-12-23T02:38:21.453Z,100
2022-12-23T02:44:12.003Z,100
2022-12-23T02:50:03.617Z,100
2022-12-23T02:55:54.541Z,100
2022-12-23T03:01:45.665Z,100
2022-12-23T03:07:37.487Z,100
2022-12-23T03:13:29.008Z,100
2022-12-23T03:19:19.603Z,100
2022-12-23T03:25:10.139Z,100
2022-12-23T03:30:58.869Z,100
2022-12-23T03:36:49.595Z,100
2022-12-23T03:42:40.408Z,100
2022-12-23T03:48:31.674Z,100
2022-12-23T03:54:24.718Z,100
2022-12-23T04:00:15.753Z,100
2022-12-23T04:06:07.938Z,100
2022-12-23T04:11:59.142Z,100
2022-12-23T04:17:51.329Z,100
2022-12-23T04:23:42.955Z,100
2022-12-23T04:29:33.630Z,100
2022-12-23T04:35:24.301Z,100
2022-12-23T04:41:15.834Z,100
2022-12-23T04:47:07.305Z,100
2022-12-23T04:53:00.188Z,100
2022-12-23T04:58:51.915Z,100
2022-12-23T05:04:42.715Z,100
2022-12-23T05:10:34.285Z,100
2022-12-23T05:16:26.550Z,100
2022-12-23T05:22:17.683Z,100
2022-12-23T05:28:09.049Z,100
2022-12-23T05:34:08.073Z,100
2022-12-23T05:39:58.982Z,100
2022-12-23T05:45:51.287Z,100
2022-12-23T05:51:43.129Z,100
2022-12-23T05:57:35.401Z,100
2022-12-23T06:03:28.100Z,100
2022-12-23T06:09:22.444Z,100
2022-12-23T06:15:13.495Z,100
2022-12-23T06:21:05.397Z,100
2022-12-23T06:27:00.253Z,100
2022-12-23T06:32:50.715Z,100
2022-12-23T06:38:42.719Z,100
2022-12-23T06:44:33.906Z,100
2022-12-23T06:50:25.588Z,100
2022-12-23T06:56:18.493Z,100
2022-12-23T07:02:10.827Z,100
2022-12-23T07:08:04.400Z,100
2022-12-23T07:13:57.388Z,100
2022-12-23T07:19:49.127Z,100
2022-12-23T07:25:40.134Z,100
2022-12-23T07:31:31.935Z,100
2022-12-23T07:37:28.413Z,100
2022-12-23T07:43:19.357Z,100
2022-12-23T07:49:11.262Z,100
2022-12-23T07:55:02.294Z,100
2022-12-23T08:00:54.446Z,100
2022-12-23T08:06:45.878Z,100
2022-12-23T08:12:37.107Z,100
2022-12-23T08:18:28.008Z,100
2022-12-23T08:24:20.383Z,100
2022-12-23T08:30:11.549Z,100
2022-12-23T08:36:03.072Z,100
2022-12-23T08:41:55.173Z,100
2022-12-23T08:47:47.456Z,100
2022-12-23T08:53:39.814Z,100
2022-12-23T08:59:31.117Z,100
2022-12-23T09:05:23.065Z,100
2022-12-23T09:11:14.335Z,100
2022-12-23T09:17:06.562Z,100
2022-12-23T09:22:58.264Z,100
2022-12-23T09:28:49.900Z,100
2022-12-23T09:34:40.600Z,100
2022-12-23T09:40:33.258Z,100
2022-12-23T09:46:24.845Z,100
2022-12-23T09:52:16.965Z,100
2022-12-23T09:58:08.695Z,100
2022-12-23T10:03:59.546Z,100
2022-12-23T10:09:52.298Z,100
2022-12-23T10:15:42.543Z,100
2022-12-23T10:21:33.682Z,100
2022-12-23T10:27:31.270Z,100
2022-12-23T10:33:22.359Z,100
2022-12-23T10:39:12.479Z,100
2022-12-23T10:45:03.420Z,100
2022-12-23T10:50:54.013Z,100
2022-12-23T10:56:44.480Z,100
2022-12-23T11:02:38.433Z,100
2022-12-23T11:08:32.847Z,100
2022-12-23T11:14:25.793Z,100
2022-12-23T11:20:16.178Z,100
2022-12-23T11:26:08.052Z,100
2022-12-23T11:31:58.362Z,100
2022-12-23T11:37:49.215Z,100
2022-12-23T11:44:50.754Z,100
2022-12-23T11:50:40.021Z,100
2022-12-23T11:56:31.358Z,100
2022-12-23T12:02:20.948Z,100
2022-12-23T12:08:11.705Z,100
2022-12-23T12:14:02.388Z,100
2022-12-23T12:19:52.475Z,100
2022-12-23T12:26:57.255Z,100
2022-12-23T12:32:51.459Z,100
2022-12-23T12:39:50.201Z,100
2022-12-23T12:45:39.676Z,100
2022-12-23T12:51:31.229Z,100
2022-12-23T13:01:59.813Z,100
2022-12-23T13:08:57.634Z,100
2022-12-23T13:14:47.965Z,100
2022-12-23T13:26:29.821Z,100
2022-12-23T13:32:18.788Z,100
2022-12-23T13:39:17.537Z,100
2022-12-23T13:45:07.002Z,100
2022-12-23T13:50:59.200Z,100
2022-12-23T13:56:52.653Z,100
2022-12-23T14:06:12.994Z,100
2022-12-23T14:14:25.314Z,100
2022-12-23T14:24:49.427Z,100
2022-12-23T14:30:37.305Z,100
2022-12-23T14:36:27.871Z,100
2022-12-23T14:42:18.743Z,100
2022-12-23T14:48:09.582Z,100
2022-12-23T14:54:01.352Z,100
2022-12-23T14:59:52.552Z,100
2022-12-23T15:06:52.291Z,100
2022-12-23T15:15:02.237Z,100
2022-12-23T15:20:50.166Z,100
2022-12-23T15:34:28.643Z,100
2022-12-23T15:40:17.665Z,100
2022-12-23T15:46:07.254Z,100
2022-12-23T15:52:21.538Z,100
2022-12-23T15:58:09.968Z,100
2022-12-23T16:06:17.529Z,100
2022-12-23T16:12:05.333Z,100
2022-12-23T16:17:51.455Z,100
2022-12-23T16:23:38.953Z,100
2022-12-23T16:29:29.031Z,100
2022-12-23T16:35:20.182Z,100
2022-12-23T16:41:10.623Z,100
2022-12-23T16:46:59.375Z,100
2022-12-23T16:52:50.254Z,100
2022-12-23T16:58:42.022Z,100
2022-12-23T17:04:32.755Z,100
2022-12-23T17:10:23.410Z,100
2022-12-23T17:16:15.229Z,100
2022-12-23T17:22:05.796Z,100
2022-12-23T17:27:56.561Z,100
2022-12-23T17:33:46.719Z,100
2022-12-23T17:39:37.034Z,100
2022-12-23T17:45:27.519Z,100
2022-12-23T17:51:17.366Z,100
2022-12-23T17:57:07.360Z,100
2022-12-23T18:02:58.122Z,100
2022-12-23T18:08:47.771Z,100
2022-12-23T18:14:36.921Z,100
2022-12-23T18:20:27.244Z,100
2022-12-23T18:26:18.544Z,100
2022-12-23T18:32:08.933Z,97.8
2022-12-23T18:37:59.398Z,98.1
2022-12-23T18:43:49.879Z,96.8
2022-12-23T18:49:40.663Z,95.7
2022-12-23T18:55:31.784Z,96.9
2022-12-23T19:01:23.170Z,94.3
2022-12-23T19:07:14.364Z,96.2
2022-12-23T19:13:05.841Z,95.5
2022-12-23T19:18:56.307Z,97.2
2022-12-23T19:25:06.838Z,97.4
2022-12-23T19:30:56.232Z,98.5
2022-12-23T19:36:47.556Z,97.3
2022-12-23T19:42:40.614Z,98.2
2022-12-23T19:48:31.441Z,97.3
2022-12-23T19:54:23.239Z,97.8
2022-12-23T20:00:14.267Z,100
2022-12-23T20:06:05.452Z,100
2022-12-23T20:11:57.432Z,99.6
2022-12-23T20:17:48.703Z,100
2022-12-23T20:23:39.427Z,100
2022-12-23T20:29:30.657Z,100
2022-12-23T20:35:21.048Z,100
2022-12-23T20:41:11.851Z,100
2022-12-23T20:47:03.858Z,100
2022-12-23T20:52:55.287Z,100
2022-12-23T20:58:44.576Z,100
2022-12-23T21:04:35.483Z,100
2022-12-23T21:10:27.043Z,100
2022-12-23T21:16:19.642Z,96.4
2022-12-23T21:22:11.490Z,94.5
2022-12-23T21:28:01.924Z,93.1
2022-12-23T21:33:54.611Z,92.3
2022-12-23T21:40:55.086Z,91.8
2022-12-23T21:46:44.651Z,91.1
2022-12-23T21:52:35.688Z,91.8
2022-12-23T21:58:24.977Z,89.8
2022-12-23T22:04:14.927Z,89.9
2022-12-23T22:10:06.568Z,88.8
2022-12-23T22:15:59.025Z,91.2
2022-12-23T22:21:50.445Z,88.8
2022-12-23T22:27:42.181Z,88.3
2022-12-23T22:33:34.279Z,89.1
2022-12-23T22:39:24.894Z,89.2
2022-12-23T22:45:16.503Z,88.8
2022-12-23T22:51:09.511Z,89.4
2022-12-23T22:56:59.980Z,87.8
2022-12-23T23:02:48.291Z,87.8
2022-12-23T23:08:37.653Z,87.4
2022-12-23T23:14:27.086Z,88.6
2022-12-23T23:20:15.929Z,89.2
2022-12-23T23:26:06.822Z,86.9
2022-12-23T23:31:57.176Z,87.3
2022-12-23T23:37:48.115Z,87.9
2022-12-23T23:43:38.852Z,87.7
2022-12-23T23:49:29.293Z,88.1
2022-12-23T23:55:19.514Z,86.4
